createdAt,value
2018-09-13T00:00:53.438Z,20.33
2018-09-13T00:03:21.915Z,20.31
2018-09-13T00:05:50.136Z,20.29
2018-09-13T00:08:18.275Z,20.30
2018-09-13T00:10:46.507Z,20.30
2018-09-13T00:13:14.688Z,20.31
2018-09-13T00:15:42.871Z,20.31
2018-09-13T00:18:11.092Z,20.32
2018-09-13T00:20:39.303Z,20.33
2018-09-13T00:23:07.923Z,20.31
2018-09-13T00:25:36.136Z,20.28
2018-09-13T00:28:04.305Z,20.27
2018-09-13T00:30:32.487Z,20.24
2018-09-13T00:33:00.756Z,20.21
2018-09-13T00:35:28.995Z,20.20
2018-09-13T00:37:57.184Z,20.18
2018-09-13T00:40:25.395Z,20.14
2018-09-13T00:42:53.607Z,20.11
2018-09-13T00:45:21.860Z,20.02
2018-09-13T00:47:50.064Z,19.99
2018-09-13T00:50:18.268Z,19.95
2018-09-13T00:52:46.455Z,19.94
2018-09-13T00:55:14.674Z,19.92
2018-09-13T00:57:42.874Z,19.89
2018-09-13T01:00:11.071Z,19.84
2018-09-13T01:02:39.246Z,19.74
2018-09-13T01:05:07.484Z,19.69
2018-09-13T01:07:35.692Z,19.66
2018-09-13T01:10:03.934Z,19.66
2018-09-13T01:12:32.111Z,19.68
2018-09-13T01:15:00.274Z,19.69
2018-09-13T01:17:28.438Z,19.69
2018-09-13T01:19:56.710Z,19.68
2018-09-13T01:22:24.961Z,19.68
2018-09-13T01:24:55.758Z,19.69
2018-09-13T01:27:25.327Z,19.70
2018-09-13T01:29:53.531Z,19.69
2018-09-13T01:32:21.820Z,19.68
2018-09-13T01:34:50.004Z,19.68
2018-09-13T01:37:18.223Z,19.69
2018-09-13T01:39:46.459Z,19.69
2018-09-13T01:42:14.658Z,19.69
2018-09-13T01:44:42.850Z,19.70
2018-09-13T01:47:11.105Z,19.70
2018-09-13T01:49:39.456Z,19.68
2018-09-13T01:52:07.850Z,19.68
2018-09-13T01:54:36.864Z,19.68
2018-09-13T01:57:05.080Z,19.68
2018-09-13T01:59:33.252Z,19.63
2018-09-13T02:02:01.439Z,19.63
2018-09-13T02:04:29.594Z,19.62
2018-09-13T02:06:57.773Z,19.60
2018-09-13T02:09:25.967Z,19.57
2018-09-13T02:11:54.166Z,19.55
2018-09-13T02:14:22.358Z,19.52
2018-09-13T02:16:50.628Z,19.50
2018-09-13T02:19:18.837Z,19.47
2018-09-13T02:21:47.064Z,19.46
2018-09-13T02:24:15.263Z,19.47
2018-09-13T02:26:43.480Z,19.46
2018-09-13T02:29:11.687Z,19.45
2018-09-13T02:31:39.899Z,19.42
2018-09-13T02:34:08.077Z,19.41
2018-09-13T02:36:36.238Z,19.40
2018-09-13T02:39:06.415Z,19.36
2018-09-13T02:41:34.635Z,19.33
2018-09-13T02:44:03.126Z,19.33
2018-09-13T02:46:31.327Z,19.34
2018-09-13T02:48:59.548Z,19.33
2018-09-13T02:51:27.679Z,19.36
2018-09-13T02:53:55.856Z,19.36
2018-09-13T02:56:24.054Z,19.36
2018-09-13T02:58:52.251Z,19.34
2018-09-13T03:01:20.482Z,19.30
2018-09-13T03:03:48.894Z,19.27
2018-09-13T03:06:17.107Z,19.26
2018-09-13T03:08:45.323Z,19.25
2018-09-13T03:11:13.485Z,19.24
2018-09-13T03:13:41.682Z,19.23
2018-09-13T03:16:10.223Z,19.22
2018-09-13T03:18:38.381Z,19.21
2018-09-13T03:21:06.543Z,19.21
2018-09-13T03:23:34.929Z,19.22
2018-09-13T03:26:03.095Z,19.21
2018-09-13T03:28:31.290Z,19.21
2018-09-13T03:30:59.463Z,19.22
2018-09-13T03:33:27.652Z,19.21
2018-09-13T03:35:55.906Z,19.21
2018-09-13T03:38:24.120Z,19.23
2018-09-13T03:40:52.323Z,19.21
2018-09-13T03:43:20.500Z,19.22
2018-09-13T03:45:48.687Z,19.21
2018-09-13T03:48:16.935Z,19.20
2018-09-13T03:50:45.122Z,19.18
2018-09-13T03:53:13.277Z,19.18
2018-09-13T03:55:41.431Z,19.17
2018-09-13T03:58:09.642Z,19.16
2018-09-13T04:00:37.876Z,19.14
2018-09-13T04:03:06.281Z,19.09
2018-09-13T04:05:34.533Z,19.05
2018-09-13T04:08:02.775Z,19.03
2018-09-13T04:10:30.981Z,18.98
2018-09-13T04:12:59.362Z,18.94
2018-09-13T04:15:27.610Z,18.92
2018-09-13T04:17:55.812Z,18.95
2018-09-13T04:20:24.027Z,18.96
2018-09-13T04:22:52.244Z,18.97
2018-09-13T04:25:20.447Z,18.97
2018-09-13T04:27:48.669Z,18.98
2018-09-13T04:30:16.843Z,18.98
2018-09-13T04:32:45.042Z,19.00
2018-09-13T04:35:13.275Z,18.99
2018-09-13T04:37:41.485Z,18.97
2018-09-13T04:40:09.775Z,18.91
2018-09-13T04:42:37.954Z,18.86
2018-09-13T04:45:06.369Z,18.82
2018-09-13T04:47:34.538Z,18.83
2018-09-13T04:50:02.808Z,18.84
2018-09-13T04:52:31.099Z,18.85
2018-09-13T04:54:59.278Z,18.85
2018-09-13T04:57:27.438Z,18.82
2018-09-13T04:59:55.643Z,18.81
2018-09-13T05:02:23.858Z,18.82
2018-09-13T05:04:52.118Z,18.82
2018-09-13T05:07:20.315Z,18.83
2018-09-13T05:09:48.488Z,18.82
2018-09-13T05:12:16.675Z,18.80
2018-09-13T05:14:44.907Z,18.80
2018-09-13T05:17:13.144Z,18.76
2018-09-13T05:19:41.320Z,18.75
2018-09-13T05:22:09.991Z,18.77
2018-09-13T05:24:38.164Z,18.74
2018-09-13T05:27:06.476Z,18.74
2018-09-13T05:29:34.680Z,18.73
2018-09-13T05:32:02.860Z,18.72
2018-09-13T05:34:31.078Z,18.69
2018-09-13T05:36:59.264Z,18.69
2018-09-13T05:39:27.454Z,18.68
2018-09-13T05:41:55.651Z,18.69
2018-09-13T05:44:23.864Z,18.68
2018-09-13T05:46:52.052Z,18.69
2018-09-13T05:49:20.241Z,18.68
2018-09-13T05:51:48.579Z,18.69
2018-09-13T05:54:16.778Z,18.70
2018-09-13T05:56:44.988Z,18.72
2018-09-13T05:59:13.164Z,18.71
2018-09-13T06:01:41.350Z,18.70
2018-09-13T06:04:09.530Z,18.69
2018-09-13T06:06:37.738Z,18.69
2018-09-13T06:09:07.422Z,18.69
2018-09-13T06:11:35.602Z,18.69
2018-09-13T06:14:03.999Z,18.69
2018-09-13T06:16:32.207Z,18.67
2018-09-13T06:19:00.430Z,18.68
2018-09-13T06:21:29.051Z,18.69
2018-09-13T06:23:57.243Z,18.71
2018-09-13T06:26:25.441Z,18.73
2018-09-13T06:28:53.621Z,18.75
2018-09-13T06:31:21.848Z,18.76
2018-09-13T06:33:50.067Z,18.75
2018-09-13T06:36:18.320Z,18.76
2018-09-13T06:38:46.479Z,18.76
2018-09-13T06:41:14.671Z,18.76
2018-09-13T06:43:42.955Z,18.78
2018-09-13T06:46:11.351Z,18.81
2018-09-13T06:48:39.558Z,18.84
2018-09-13T06:51:07.723Z,18.87
2018-09-13T06:53:35.895Z,18.90
2018-09-13T06:56:04.094Z,18.90
2018-09-13T06:58:32.359Z,18.90
2018-09-13T07:01:00.547Z,18.92
2018-09-13T07:03:28.716Z,18.91
2018-09-13T07:05:56.923Z,18.90
2018-09-13T07:08:25.125Z,18.89
2018-09-13T07:10:53.325Z,18.86
2018-09-13T07:13:21.516Z,18.86
2018-09-13T07:15:50.019Z,18.84
2018-09-13T07:18:18.235Z,18.81
2018-09-13T07:20:46.454Z,18.80
2018-09-13T07:23:14.622Z,18.79
2018-09-13T07:25:42.835Z,18.81
2018-09-13T07:28:11.022Z,18.84
2018-09-13T07:30:39.211Z,18.85
2018-09-13T07:33:07.390Z,18.89
2018-09-13T07:35:35.566Z,18.91
2018-09-13T07:38:03.742Z,18.94
2018-09-13T07:40:32.007Z,18.97
2018-09-13T07:43:00.187Z,19.00
2018-09-13T07:45:28.346Z,19.04
2018-09-13T07:47:56.907Z,19.08
2018-09-13T07:50:25.114Z,19.12
2018-09-13T07:52:53.445Z,19.14
2018-09-13T07:55:21.711Z,19.17
2018-09-13T07:57:49.958Z,19.19
2018-09-13T08:00:18.199Z,19.20
2018-09-13T08:02:46.439Z,19.21
2018-09-13T08:05:14.635Z,19.22
2018-09-13T08:07:42.819Z,19.23
2018-09-13T08:10:11.035Z,19.24
2018-09-13T08:12:39.236Z,19.24
2018-09-13T08:15:07.438Z,19.24
2018-09-13T08:17:35.611Z,19.24
2018-09-13T08:20:03.870Z,19.26
2018-09-13T08:22:32.099Z,19.27
2018-09-13T08:25:00.719Z,19.25
2018-09-13T08:27:28.926Z,19.25
2018-09-13T08:29:57.311Z,19.25
2018-09-13T08:32:25.491Z,19.26
2018-09-13T08:34:53.757Z,19.24
2018-09-13T08:37:21.880Z,19.24
2018-09-13T08:39:50.130Z,19.24
2018-09-13T08:42:18.262Z,19.24
2018-09-13T08:44:46.451Z,19.26
2018-09-13T08:47:14.618Z,19.24
2018-09-13T08:49:42.821Z,19.24
2018-09-13T08:52:11.100Z,19.28
2018-09-13T08:54:39.255Z,19.30
2018-09-13T08:57:07.436Z,19.33
2018-09-13T08:59:35.639Z,19.36
2018-09-13T09:02:03.846Z,19.37
2018-09-13T09:04:32.034Z,19.37
2018-09-13T09:07:00.499Z,19.35
2018-09-13T09:09:28.688Z,19.35
2018-09-13T09:11:56.955Z,19.36
2018-09-13T09:14:25.089Z,19.39
2018-09-13T09:16:53.250Z,19.41
2018-09-13T09:19:21.447Z,19.43
2018-09-13T09:21:49.707Z,19.44
2018-09-13T09:24:18.002Z,19.48
2018-09-13T09:26:46.187Z,19.51
2018-09-13T09:29:14.399Z,19.55
2018-09-13T09:31:42.595Z,19.57
2018-09-13T09:34:10.814Z,19.57
2018-09-13T09:36:39.035Z,19.56
2018-09-13T09:39:11.839Z,19.56
2018-09-13T09:41:40.075Z,19.54
2018-09-13T09:44:08.447Z,19.55
2018-09-13T09:46:36.702Z,19.58
2018-09-13T09:49:04.899Z,19.61
2018-09-13T09:51:33.100Z,19.61
2018-09-13T09:54:01.343Z,19.63
2018-09-13T09:56:29.519Z,19.63
2018-09-13T09:58:57.724Z,19.60
2018-09-13T10:01:31.295Z,19.60
2018-09-13T10:03:59.551Z,19.62
2018-09-13T10:06:27.758Z,19.68
2018-09-13T10:08:56.427Z,19.74
2018-09-13T10:11:24.625Z,19.77
2018-09-13T10:13:52.875Z,19.81
2018-09-13T10:16:26.540Z,19.80
2018-09-13T10:18:59.884Z,19.75
2018-09-13T10:21:33.489Z,19.71
2018-09-13T10:24:07.037Z,19.72
2018-09-13T10:26:40.526Z,19.71
2018-09-13T10:29:14.134Z,19.70
2018-09-13T10:31:47.534Z,19.71
2018-09-13T10:34:21.056Z,19.73
2018-09-13T10:36:54.539Z,19.74
2018-09-13T10:39:28.049Z,19.72
2018-09-13T10:42:01.487Z,19.71
2018-09-13T10:44:35.099Z,19.71
2018-09-13T10:47:08.618Z,19.73
2018-09-13T10:49:42.115Z,19.82
2018-09-13T10:52:17.434Z,19.89
2018-09-13T10:54:45.604Z,19.98
2018-09-13T10:57:19.034Z,20.03
2018-09-13T10:59:48.116Z,20.13
2018-09-13T11:02:16.328Z,20.26
2018-09-13T11:04:45.619Z,20.40
2018-09-13T11:07:13.847Z,20.56
2018-09-13T11:09:42.034Z,20.69
2018-09-13T11:12:10.280Z,20.81
2018-09-13T11:14:56.715Z,20.90
2018-09-13T11:17:25.625Z,20.98
2018-09-13T11:19:53.888Z,21.03
2018-09-13T11:22:22.071Z,21.04
2018-09-13T11:24:50.293Z,21.00
2018-09-13T11:27:18.556Z,20.98
2018-09-13T11:29:46.803Z,20.95
2018-09-13T11:32:15.071Z,20.92
2018-09-13T11:34:44.255Z,20.92
2018-09-13T11:37:12.483Z,20.91
2018-09-13T11:39:40.789Z,20.93
2018-09-13T11:42:09.199Z,20.95
2018-09-13T11:44:37.404Z,20.98
2018-09-13T11:47:06.007Z,21.04
2018-09-13T11:49:34.196Z,21.13
2018-09-13T11:52:02.378Z,21.20
2018-09-13T11:54:30.566Z,21.21
2018-09-13T11:56:58.895Z,21.25
2018-09-13T11:59:27.158Z,21.28
2018-09-13T12:01:55.359Z,21.33
2018-09-13T12:04:23.556Z,21.37
2018-09-13T12:06:52.070Z,21.38
2018-09-13T12:09:20.297Z,21.33
2018-09-13T12:11:48.466Z,21.27
2018-09-13T12:14:16.667Z,21.25
2018-09-13T12:16:44.866Z,21.22
2018-09-13T12:19:13.086Z,21.18
2018-09-13T12:21:41.268Z,21.18
2018-09-13T12:24:09.439Z,21.15
2018-09-13T12:26:37.619Z,21.15
2018-09-13T12:29:06.519Z,21.16
2018-09-13T12:31:34.724Z,21.14
2018-09-13T12:34:02.919Z,21.13
2018-09-13T12:36:31.128Z,21.13
2018-09-13T12:38:59.639Z,21.13
2018-09-13T12:41:27.972Z,21.17
2018-09-13T12:43:56.399Z,21.19
2018-09-13T12:46:24.687Z,21.21
2018-09-13T12:48:53.033Z,21.22
2018-09-13T12:51:21.281Z,21.27
2018-09-13T12:53:49.470Z,21.32
2018-09-13T12:56:17.746Z,21.37
2018-09-13T12:58:46.020Z,21.40
2018-09-13T13:01:14.207Z,21.41
2018-09-13T13:03:42.441Z,21.42
2018-09-13T13:06:10.775Z,21.49
2018-09-13T13:08:39.115Z,21.54
2018-09-13T13:11:07.384Z,21.61
2018-09-13T13:13:35.592Z,21.68
2018-09-13T13:16:03.965Z,21.74
2018-09-13T13:18:32.193Z,21.83
2018-09-13T13:21:00.455Z,21.89
2018-09-13T13:23:28.649Z,21.94
2018-09-13T13:25:56.900Z,21.95
2018-09-13T13:28:25.324Z,21.95
2018-09-13T13:30:53.531Z,21.95
2018-09-13T13:33:28.644Z,21.96
2018-09-13T13:35:56.879Z,21.97
2018-09-13T13:38:25.206Z,22.03
2018-09-13T13:40:53.422Z,22.12
2018-09-13T13:43:21.609Z,22.25
2018-09-13T13:45:49.858Z,22.43
2018-09-13T13:48:18.071Z,22.71
2018-09-13T13:50:46.244Z,22.92
2018-09-13T13:53:14.427Z,23.23
2018-09-13T13:55:42.619Z,23.36
2018-09-13T13:58:10.802Z,23.72
2018-09-13T14:00:38.980Z,24.23
2018-09-13T14:03:07.187Z,24.59
2018-09-13T14:05:35.380Z,24.63
2018-09-13T14:08:03.550Z,24.39
2018-09-13T14:10:31.746Z,24.10
2018-09-13T14:12:59.983Z,23.85
2018-09-13T14:15:28.164Z,23.61
2018-09-13T14:17:56.346Z,23.41
2018-09-13T14:20:24.555Z,23.24
2018-09-13T14:22:52.736Z,23.05
2018-09-13T14:25:20.943Z,22.88
2018-09-13T14:27:49.227Z,22.79
2018-09-13T14:30:17.402Z,22.70
2018-09-13T14:32:45.615Z,22.64
2018-09-13T14:35:13.990Z,22.62
2018-09-13T14:37:42.316Z,22.58
2018-09-13T14:40:11.029Z,22.59
2018-09-13T14:42:39.231Z,22.62
2018-09-13T14:45:07.573Z,22.65
2018-09-13T14:47:36.257Z,22.65
2018-09-13T14:50:04.468Z,22.65
2018-09-13T14:52:32.641Z,22.62
2018-09-13T14:55:00.815Z,22.56
2018-09-13T14:57:28.999Z,22.53
2018-09-13T14:59:57.343Z,22.52
2018-09-13T15:02:25.555Z,22.51
2018-09-13T15:04:53.807Z,22.48
2018-09-13T15:07:21.956Z,22.47
2018-09-13T15:09:50.154Z,22.45
2018-09-13T15:12:18.359Z,22.41
2018-09-13T15:14:46.773Z,22.40
2018-09-13T15:17:15.036Z,22.33
2018-09-13T15:19:43.275Z,22.28
2018-09-13T15:22:11.846Z,22.24
2018-09-13T15:24:40.549Z,22.20
2018-09-13T15:27:08.779Z,22.13
2018-09-13T15:29:37.095Z,22.03
2018-09-13T15:32:05.775Z,21.97
2018-09-13T15:34:35.458Z,21.94
2018-09-13T15:37:03.681Z,21.92
2018-09-13T15:39:31.839Z,21.85
2018-09-13T15:42:00.124Z,21.75
2018-09-13T15:44:28.390Z,21.71
2018-09-13T15:46:56.684Z,21.67
2018-09-13T15:49:24.939Z,21.65
2018-09-13T15:51:53.107Z,21.62
2018-09-13T15:54:21.777Z,21.60
2018-09-13T15:56:49.986Z,21.55
2018-09-13T15:59:18.221Z,21.51
2018-09-13T16:01:46.370Z,21.51
2018-09-13T16:04:14.627Z,21.49
2018-09-13T16:06:42.960Z,21.47
2018-09-13T16:09:11.891Z,21.45
2018-09-13T16:11:40.112Z,21.44
2018-09-13T16:14:08.337Z,21.42
2018-09-13T16:16:36.509Z,21.37
2018-09-13T16:19:04.723Z,21.35
2018-09-13T16:21:32.986Z,21.36
2018-09-13T16:24:01.200Z,21.31
2018-09-13T16:26:29.473Z,21.28
2018-09-13T16:28:57.746Z,21.23
2018-09-13T16:31:25.947Z,21.17
2018-09-13T16:33:54.239Z,21.12
2018-09-13T16:36:25.848Z,21.08
2018-09-13T16:38:59.283Z,21.04
2018-09-13T16:41:38.295Z,21.02
2018-09-13T16:44:06.482Z,20.99
2018-09-13T16:46:39.942Z,20.97
2018-09-13T16:49:08.166Z,20.96
2018-09-13T16:51:36.736Z,20.95
2018-09-13T16:54:05.211Z,20.94
2018-09-13T16:56:33.395Z,20.92
2018-09-13T16:59:01.592Z,20.91
2018-09-13T17:01:29.823Z,20.89
2018-09-13T17:03:58.007Z,20.88
2018-09-13T17:06:26.224Z,20.86
2018-09-13T17:08:54.466Z,20.84
2018-09-13T17:11:22.639Z,20.79
2018-09-13T17:13:50.819Z,20.75
2018-09-13T17:16:18.990Z,20.72
2018-09-13T17:18:47.162Z,20.70
2018-09-13T17:21:15.329Z,20.67
2018-09-13T17:23:43.530Z,20.65
2018-09-13T17:26:11.698Z,20.64
2018-09-13T17:28:39.896Z,20.61
2018-09-13T17:31:08.119Z,20.61
2018-09-13T17:33:36.356Z,20.59
2018-09-13T17:36:04.567Z,20.56
2018-09-13T17:38:32.756Z,20.56
2018-09-13T17:41:00.977Z,20.54
2018-09-13T17:43:29.178Z,20.51
2018-09-13T17:45:57.370Z,20.48
2018-09-13T17:48:25.611Z,20.47
2018-09-13T17:50:53.783Z,20.45
2018-09-13T17:53:21.978Z,20.43
2018-09-13T17:55:50.262Z,20.41
2018-09-13T17:58:18.404Z,20.40
2018-09-13T18:00:46.562Z,20.38
2018-09-13T18:03:15.239Z,20.35
2018-09-13T18:05:43.488Z,20.35
2018-09-13T18:08:11.779Z,20.34
2018-09-13T18:10:39.976Z,20.33
2018-09-13T18:13:08.259Z,20.32
2018-09-13T18:15:36.462Z,20.30
2018-09-13T18:18:04.643Z,20.28
2018-09-13T18:23:35.415Z,20.24
2018-09-13T18:26:03.694Z,20.22
2018-09-13T18:28:31.888Z,20.20
2018-09-13T18:31:00.288Z,20.16
2018-09-13T18:33:28.464Z,20.12
2018-09-13T18:35:56.691Z,20.06
2018-09-13T18:38:24.945Z,20.01
2018-09-13T18:40:53.175Z,19.96
2018-09-13T18:43:21.406Z,19.92
2018-09-13T18:45:49.921Z,19.85
2018-09-13T18:48:18.085Z,19.77
2018-09-13T18:50:46.561Z,19.73
2018-09-13T18:53:14.985Z,19.63
2018-09-13T18:55:43.390Z,19.57
2018-09-13T18:58:11.760Z,19.49
2018-09-13T19:00:40.852Z,19.42
2018-09-13T19:03:09.537Z,19.36
2018-09-13T19:05:37.820Z,19.30
2018-09-13T19:08:06.241Z,19.25
2018-09-13T19:10:34.486Z,19.19
2018-09-13T19:13:02.809Z,19.12
2018-09-13T19:15:31.136Z,19.06
2018-09-13T19:17:59.452Z,18.99
2018-09-13T19:20:27.821Z,18.93
2018-09-13T19:22:56.168Z,18.89
2018-09-13T19:25:24.595Z,18.86
2018-09-13T19:27:52.881Z,18.82
2018-09-13T19:30:22.420Z,18.78
2018-09-13T19:32:51.297Z,18.77
2018-09-13T19:35:20.130Z,18.74
2018-09-13T19:37:48.592Z,18.72
2018-09-13T19:40:16.952Z,18.69
2018-09-13T19:42:46.021Z,18.65
2018-09-13T19:45:14.324Z,18.60
2018-09-13T19:47:42.629Z,18.58
2018-09-13T19:50:10.956Z,18.53
2018-09-13T19:52:39.973Z,18.50
2018-09-13T19:55:08.615Z,18.47
2018-09-13T19:57:36.994Z,18.42
2018-09-13T20:00:05.852Z,18.40
2018-09-13T20:02:34.337Z,18.37
2018-09-13T20:05:02.711Z,18.33
2018-09-13T20:07:30.916Z,18.27
2018-09-13T20:09:59.240Z,18.24
2018-09-13T20:12:27.618Z,18.21
2018-09-13T20:14:56.211Z,18.18
2018-09-13T20:17:24.798Z,18.19
2018-09-13T20:19:53.264Z,18.22
2018-09-13T20:22:21.654Z,18.22
2018-09-13T20:24:49.985Z,18.22
2018-09-13T20:27:18.334Z,18.20
2018-09-13T20:29:46.634Z,18.15
2018-09-13T20:32:15.663Z,18.10
2018-09-13T20:34:44.090Z,18.08
2018-09-13T20:37:12.744Z,18.04
2018-09-13T20:39:41.046Z,18.02
2018-09-13T20:42:09.523Z,17.99
2018-09-13T20:44:37.871Z,17.96
2018-09-13T20:47:06.295Z,18.00
2018-09-13T20:49:34.634Z,18.04
2018-09-13T20:52:02.964Z,18.08
2018-09-13T20:54:31.896Z,18.10
2018-09-13T20:57:00.208Z,18.06
2018-09-13T20:59:28.838Z,18.02
2018-09-13T21:01:57.599Z,17.97
2018-09-13T21:04:26.262Z,17.91
2018-09-13T21:06:54.759Z,17.85
2018-09-13T21:09:23.415Z,17.86
2018-09-13T21:11:51.733Z,17.86
2018-09-13T21:14:20.096Z,17.82
2018-09-13T21:16:48.498Z,17.76
2018-09-13T21:19:16.861Z,17.70
2018-09-13T21:21:45.148Z,17.67
2018-09-13T21:24:13.556Z,17.64
2018-09-13T21:26:41.799Z,17.61
2018-09-13T21:29:10.133Z,17.59
2018-09-13T21:31:38.443Z,17.55
2018-09-13T21:34:06.840Z,17.58
2018-09-13T21:36:35.201Z,17.59
2018-09-13T21:39:04.808Z,17.60
2018-09-13T21:41:33.466Z,17.56
2018-09-13T21:44:01.940Z,17.53
2018-09-13T21:46:30.662Z,17.54
2018-09-13T21:49:00.089Z,17.53
2018-09-13T21:51:28.542Z,17.48
2018-09-13T21:53:57.221Z,17.44
2018-09-13T21:56:25.831Z,17.40
2018-09-13T21:58:54.578Z,17.38
2018-09-13T22:01:23.030Z,17.41
2018-09-13T22:03:51.898Z,17.45
2018-09-13T22:06:20.717Z,17.46
2018-09-13T22:08:49.457Z,17.43
2018-09-13T22:11:18.218Z,17.36
2018-09-13T22:13:46.583Z,17.29
2018-09-13T22:16:14.885Z,17.26
2018-09-13T22:18:49.924Z,17.19
2018-09-13T22:21:18.290Z,17.14
2018-09-13T22:23:46.798Z,17.09
2018-09-13T22:26:15.193Z,17.12
2018-09-13T22:28:43.514Z,17.16
2018-09-13T22:31:11.905Z,17.15
2018-09-13T22:33:40.319Z,17.13
2018-09-13T22:36:08.698Z,17.12
2018-09-13T22:38:37.117Z,17.08
2018-09-13T22:41:05.501Z,17.06
2018-09-13T22:43:39.139Z,17.06
2018-09-13T22:46:08.737Z,17.05
2018-09-13T22:48:37.116Z,17.04
2018-09-13T22:51:05.479Z,17.04
2018-09-13T22:53:33.830Z,17.02
2018-09-13T22:56:02.129Z,16.97
2018-09-13T22:58:30.440Z,16.94
2018-09-13T23:00:58.785Z,16.95
2018-09-13T23:03:27.114Z,16.99
2018-09-13T23:05:55.408Z,17.00
2018-09-13T23:08:23.805Z,17.02
2018-09-13T23:10:52.439Z,17.03
2018-09-13T23:13:20.847Z,16.98
2018-09-13T23:15:49.223Z,16.99
2018-09-13T23:18:17.529Z,16.99
2018-09-13T23:20:45.865Z,17.01
2018-09-13T23:23:14.161Z,17.03
2018-09-13T23:25:42.544Z,17.05
2018-09-13T23:28:11.045Z,17.08
2018-09-13T23:30:39.471Z,17.10
2018-09-13T23:33:07.856Z,17.11
2018-09-13T23:35:36.206Z,17.09
2018-09-13T23:38:05.373Z,17.09
2018-09-13T23:40:33.753Z,17.06
2018-09-13T23:43:02.108Z,17.03
2018-09-13T23:45:31.082Z,17.02
2018-09-13T23:48:00.025Z,17.00
2018-09-13T23:50:28.421Z,16.98
2018-09-13T23:52:56.722Z,16.96
2018-09-13T23:55:25.085Z,16.97
2018-09-13T23:57:53.406Z,16.98
